Time;durP1;ratioP1;P1;durP2;ratioP2;P2;SDS_P1;SDS_P2;PMS_P1;PMS_P2;Temp;Humidity;BMP_temperature;BMP_pressure;BME280_temperature;BME280_humidity;BME280_pressure;Samples;Min_cycle;Max_cycle;Signal;HPM_P1;HPM_P2
2022/12/06 00:08:17;;;;;;;5.28;4.22;;;;;;;20.66;53.86;100529.44;20648240;28;20057;-76
2022/12/06 00:18:18;;;;;;;6.25;4.78;;;;;;;20.64;53.99;100519.03;20633296;28;20057;-76
2022/12/06 00:28:18;;;;;;;4.80;4.13;;;;;;;20.64;53.75;100518.16;20644697;28;20134;-76
2022/12/06 00:38:19;;;;;;;5.18;4.10;;;;;;;20.64;53.60;100494.47;20654511;28;20073;-76
2022/12/06 00:48:20;;;;;;;5.43;4.32;;;;;;;20.61;53.82;100473.69;20647983;28;20045;-75
2022/12/06 00:58:22;;;;;;;5.78;4.10;;;;;;;20.59;53.52;100465.91;20643325;28;20413;-76
2022/12/06 01:08:22;;;;;;;5.10;3.92;;;;;;;20.60;53.48;100462.34;20647386;28;20046;-76
2022/12/06 01:18:22;;;;;;;6.10;4.28;;;;;;;20.62;53.89;100441.16;20638847;28;20405;-76
2022/12/06 01:28:23;;;;;;;4.90;4.05;;;;;;;20.60;53.37;100433.38;20641579;28;20108;-76
2022/12/06 01:38:23;;;;;;;4.60;3.60;;;;;;;20.59;53.46;100417.69;20635040;28;20051;-77
2022/12/06 01:48:25;;;;;;;4.05;3.60;;;;;;;20.57;53.43;100378.34;20635022;28;20054;-76
2022/12/06 01:58:33;;;;;;;4.50;3.43;;;;;;;20.53;53.53;100360.28;20637263;28;20516;-77
2022/12/06 02:08:34;;;;;;;6.47;3.45;;;;;;;20.56;53.63;100373.22;20633289;28;20552;-76
2022/12/06 02:18:59;;;;;;;4.57;3.47;;;;;;;20.56;53.79;100444.25;20654857;28;20050;-76
2022/12/06 02:29:24;;;;;;;4.22;3.38;;;;;;;20.53;53.59;100431.31;20634197;28;20050;-77
2022/12/06 02:39:33;;;;;;;4.22;3.28;;;;;;;20.53;53.73;100428.69;20633253;28;20535;-77
2022/12/06 02:49:36;;;;;;;3.28;2.88;;;;;;;20.51;53.43;100441.09;20641719;28;20039;-77
2022/12/06 02:59:37;;;;;;;4.93;3.10;;;;;;;20.48;53.49;100423.75;20639786;28;20093;-77
2022/12/06 03:09:53;;;;;;;3.78;3.22;;;;;;;20.47;53.56;100388.72;20638882;28;20046;-77
2022/12/06 03:20:02;;;;;;;5.05;3.28;;;;;;;20.47;53.67;100390.53;20636956;28;20408;-76
2022/12/06 03:30:07;;;;;;;4.15;2.60;;;;;;;20.43;53.63;100347.84;20642256;28;20042;-76
2022/12/06 03:40:20;;;;;;;3.65;2.97;;;;;;;20.42;53.61;100325.13;20636745;28;20066;-76
2022/12/06 03:50:28;;;;;;;8.18;3.20;;;;;;;20.43;54.07;100332.06;20651582;28;20422;-76
2022/12/06 04:00:29;;;;;;;3.58;2.88;;;;;;;20.44;53.59;100320.56;20646848;28;20046;-77
2022/12/06 04:10:29;;;;;;;2.97;2.65;;;;;;;20.43;53.72;100295.25;20648223;28;20077;-76
2022/12/06 04:23:02;;;;;;;3.67;2.60;;;;;;;20.42;53.65;100303.22;20652375;28;20053;-76
2022/12/06 04:43:40;;;;;;;2.85;2.42;;;;;;;20.42;53.74;100353.19;20650304;28;20038;-76
2022/12/06 04:51:32;;;;;;;3.15;2.60;;;;;;;20.40;53.73;100353.31;20644592;28;20046;-76
2022/12/06 05:01:33;;;;;;;2.88;2.58;;;;;;;20.40;53.87;100358.56;20644644;28;20157;-76
2022/12/06 05:11:33;;;;;;;3.47;2.65;;;;;;;20.42;53.98;100351.41;20631452;28;20035;-76
2022/12/06 05:21:33;;;;;;;2.92;2.63;;;;;;;20.45;53.41;100337.19;20630726;28;20129;-75
2022/12/06 05:31:34;;;;;;;2.75;2.45;;;;;;;20.54;53.23;100344.38;20635066;28;20054;-76
2022/12/06 05:41:34;;;;;;;2.67;2.40;;;;;;;20.62;53.31;100351.72;20621353;28;20831;-79
2022/12/06 05:51:35;;;;;;;3.55;2.40;;;;;;;20.78;54.35;100346.16;20613016;28;20047;-77
2022/12/06 06:01:35;;;;;;;4.38;2.25;;;;;;;20.89;54.55;100334.81;20606876;28;20136;-76
2022/12/06 06:11:35;;;;;;;11.02;2.20;;;;;;;20.97;55.42;100316.63;20608359;28;20057;-78
2022/12/06 06:21:36;;;;;;;7.32;2.40;;;;;;;21.12;55.41;100304.06;20634676;28;20137;-78
2022/12/06 06:31:36;;;;;;;4.20;2.30;;;;;;;21.20;55.32;100304.31;20613014;28;20043;-81
2022/12/06 06:41:37;;;;;;;3.35;2.30;;;;;;;21.28;55.06;100296.59;20652482;28;20688;-81
2022/12/06 06:51:37;;;;;;;4.35;2.20;;;;;;;21.35;55.09;100289.06;20664213;28;20593;-82
2022/12/06 07:01:38;;;;;;;2.58;2.10;;;;;;;21.42;54.67;100287.63;20652499;28;20073;-82
2022/12/06 07:11:38;;;;;;;7.47;2.30;;;;;;;21.50;54.79;100276.47;20665914;28;20069;-84
2022/12/06 07:21:39;;;;;;;6.63;2.50;;;;;;;21.58;54.31;100286.41;20665097;28;20084;-84
2022/12/06 07:31:39;;;;;;;7.15;3.22;;;;;;;21.56;52.97;100299.72;20648370;28;20054;-83
2022/12/06 07:52:00;;;;;;;7.72;3.20;;;;;;;21.52;51.35;100261.38;20665189;28;20505;-82
2022/12/06 08:02:02;;;;;;;7.80;3.37;;;;;;;21.56;50.94;100278.63;20628720;28;20059;-83
2022/12/06 08:12:03;;;;;;;6.43;3.25;;;;;;;21.57;51.08;100282.13;20661430;28;20045;-84
2022/12/06 08:22:03;;;;;;;5.53;3.10;;;;;;;21.55;51.62;100291.91;20661507;28;20042;-88
2022/12/06 08:32:04;;;;;;;15.35;3.67;;;;;;;21.61;51.34;100312.50;20615190;28;20153;-80
2022/12/06 08:42:06;;;;;;;15.57;3.60;;;;;;;21.74;51.63;100304.47;20648362;28;20065;-76
2022/12/06 08:52:07;;;;;;;11.33;4.23;;;;;;;21.71;51.22;100313.44;20640339;28;20846;-78
2022/12/06 09:02:10;;;;;;;11.68;4.35;;;;;;;21.71;51.59;100315.25;20678121;28;20077;-80
2022/12/06 09:12:12;;;;;;;12.77;4.65;;;;;;;21.77;51.62;100304.19;20675297;28;20077;-81
2022/12/06 09:22:13;;;;;;;8.10;3.97;;;;;;;21.83;51.46;100298.44;20675788;28;20046;-79
2022/12/06 09:32:13;;;;;;;10.32;3.92;;;;;;;21.97;51.76;100291.19;20666945;28;20034;-79
2022/12/06 09:42:14;;;;;;;6.97;3.80;;;;;;;22.10;51.13;100302.41;20655273;28;20053;-82
2022/12/06 09:52:25;;;;;;;9.77;4.03;;;;;;;22.14;51.10;100305.63;20660564;28;20075;-77
2022/12/06 10:02:47;;;;;;;11.05;4.38;;;;;;;22.06;50.19;100298.34;20642422;28;20065;-88
2022/12/06 10:13:07;;;;;;;10.00;4.80;;;;;;;22.00;49.74;100294.41;20640923;28;20042;-78
2022/12/06 10:23:42;;;;;;;9.77;4.00;;;;;;;22.10;49.89;100283.13;20612373;28;20046;-75
2022/12/06 10:34:15;;;;;;;4.93;2.63;;;;;;;20.70;41.35;100264.28;20587074;28;20047;-76
2022/12/06 10:44:37;;;;;;;5.05;3.05;;;;;;;21.39;45.29;100229.91;20604564;28;20077;-81
2022/12/06 10:54:42;;;;;;;5.33;2.10;;;;;;;21.64;45.43;100242.91;20644792;28;20052;-80
2022/12/06 11:04:45;;;;;;;5.53;1.83;;;;;;;21.90;46.12;100238.16;20650864;28;20042;-82
2022/12/06 11:14:51;;;;;;;2.58;1.85;;;;;;;22.08;47.41;100235.75;20680399;28;20721;-81
2022/12/06 11:24:59;;;;;;;4.18;1.77;;;;;;;22.13;47.88;100222.19;20684442;28;20046;-80
2022/12/06 11:35:00;;;;;;;3.83;1.92;;;;;;;22.12;48.63;100221.38;20710180;28;20064;-80
2022/12/06 11:45:11;;;;;;;3.25;2.25;;;;;;;22.09;48.68;100211.06;20683880;28;20606;-81
2022/12/06 11:55:21;;;;;;;3.55;2.35;;;;;;;22.05;48.48;100212.31;20672954;28;20038;-81
2022/12/06 12:05:30;;;;;;;3.70;2.83;;;;;;;22.02;48.49;100210.75;20689244;28;20046;-82
2022/12/06 12:15:31;;;;;;;4.45;2.88;;;;;;;21.99;47.67;100208.38;20697951;28;20936;-80
2022/12/06 12:25:35;;;;;;;3.90;2.63;;;;;;;21.95;48.23;100221.94;20694467;28;20042;-84
2022/12/06 12:35:38;;;;;;;4.38;2.92;;;;;;;21.96;48.25;100231.50;20694252;28;20468;-82
2022/12/06 12:45:59;;;;;;;4.95;2.80;;;;;;;21.96;48.72;100227.09;20698864;28;20062;-81
2022/12/06 12:56:11;;;;;;;3.43;2.70;;;;;;;21.96;48.29;100211.28;20647691;28;20352;-83
2022/12/06 13:06:28;;;;;;;4.53;2.00;;;;;;;21.65;43.19;100212.97;20647702;28;20107;-80
2022/12/06 13:16:35;;;;;;;3.72;2.10;;;;;;;21.87;46.26;100209.41;20665203;28;20049;-79
2022/12/06 13:26:48;;;;;;;14.23;2.42;;;;;;;21.93;46.47;100203.59;20695022;28;20076;-79
2022/12/06 13:36:51;;;;;;;4.18;1.90;;;;;;;21.95;47.21;100204.31;20733690;22;20451;-79
2022/12/06 13:47:26;;;;;;;4.47;2.00;;;;;;;21.93;47.46;100202.78;20765042;28;20155;-80
2022/12/06 13:57:30;;;;;;;3.13;2.00;;;;;;;21.92;47.42;100207.19;20760811;28;20050;-79
2022/12/06 14:07:35;;;;;;;5.50;2.58;;;;;;;21.95;47.99;100204.31;20745609;28;21379;-80
2022/12/06 14:17:42;;;;;;;4.38;2.20;;;;;;;21.96;48.06;100206.00;20707061;28;20585;-80
2022/12/06 14:27:49;;;;;;;7.07;2.55;;;;;;;21.95;47.98;100196.41;20703149;28;20046;-76
2022/12/06 14:37:52;;;;;;;9.00;3.33;;;;;;;21.92;48.35;100199.28;20729604;28;20046;-76
2022/12/06 14:47:54;;;;;;;11.77;4.35;;;;;;;21.83;46.38;100205.34;20716799;28;20045;-77
2022/12/06 14:58:01;;;;;;;13.70;4.78;;;;;;;21.75;47.14;100217.38;20747350;28;20041;-75
2022/12/06 15:08:27;;;;;;;15.57;5.07;;;;;;;21.72;47.08;100209.69;20742845;28;20071;-77
2022/12/06 15:18:35;;;;;;;13.50;4.35;;;;;;;21.71;47.44;100208.03;20737468;28;20038;-79
2022/12/06 15:28:36;;;;;;;21.50;4.20;;;;;;;21.64;47.26;100227.97;20729508;28;20057;-79
2022/12/06 15:38:36;;;;;;;18.25;4.88;;;;;;;21.51;48.03;100233.34;20728673;28;20049;-79
2022/12/06 15:48:37;;;;;;;13.32;4.75;;;;;;;21.42;47.75;100232.31;20740694;28;20534;-79
2022/12/06 15:58:37;;;;;;;11.45;4.03;;;;;;;21.43;47.90;100247.16;20716514;28;20498;-78
2022/12/06 16:08:38;;;;;;;20.85;4.20;;;;;;;21.43;48.17;100244.53;20721004;28;20038;-77
2022/12/06 16:18:38;;;;;;;12.57;4.10;;;;;;;21.39;48.14;100231.72;20726149;28;20052;-76
2022/12/06 16:28:39;;;;;;;11.80;3.78;;;;;;;21.42;48.13;100236.72;20729063;28;20045;-77
2022/12/06 16:38:40;;;;;;;9.38;3.70;;;;;;;21.37;48.31;100245.03;20724694;28;20164;-77
2022/12/06 16:48:40;;;;;;;11.03;3.67;;;;;;;21.33;48.07;100245.38;20731937;28;20057;-77
2022/12/06 16:58:41;;;;;;;10.50;3.75;;;;;;;21.35;48.27;100256.59;20702593;28;20291;-81
2022/12/06 17:08:42;;;;;;;28.13;6.13;;;;;;;21.39;49.84;100265.97;20722040;28;20071;-76
2022/12/06 17:18:46;;;;;;;81.33;38.13;;;;;;;21.40;50.72;100257.09;20719099;28;20053;-81
2022/12/06 17:28:47;;;;;;;68.10;32.03;;;;;;;21.37;51.21;100265.22;20698493;28;20049;-74
2022/12/06 17:38:48;;;;;;;53.27;26.93;;;;;;;21.41;51.29;100256.13;20704588;28;20041;-74
2022/12/06 17:48:49;;;;;;;106.75;36.92;;;;;;;21.42;52.13;100244.63;20717522;28;20358;-73
2022/12/06 17:58:50;;;;;;;91.90;33.55;;;;;;;21.45;52.83;100247.03;20717654;28;20037;-75
2022/12/06 18:08:51;;;;;;;84.57;32.33;;;;;;;21.46;52.80;100248.69;20716038;28;20072;-76
2022/12/06 18:18:54;;;;;;;74.70;29.35;;;;;;;21.44;52.42;100242.72;20752770;28;20500;-76
2022/12/06 18:28:58;;;;;;;71.90;28.23;;;;;;;21.47;52.16;100245.13;20717738;28;20073;-75
2022/12/06 18:39:01;;;;;;;65.90;26.15;;;;;;;21.44;52.26;100247.97;20660038;28;1098059;-74
2022/12/06 18:49:03;;;;;;;;;;;;;;;21.41;51.99;100241.16;20703516;28;20439;-73
2022/12/06 18:59:06;;;;;;;56.23;22.87;;;;;;;21.37;52.28;100258.19;20710016;28;19921;-74
2022/12/06 19:09:09;;;;;;;53.10;21.65;;;;;;;21.35;52.17;100260.09;20717864;28;20287;-74
2022/12/06 19:19:16;;;;;;;47.92;20.67;;;;;;;21.33;51.91;100263.81;20740997;28;21369;-75
2022/12/06 19:29:18;;;;;;;47.05;18.48;;;;;;;21.30;52.44;100259.63;20732439;28;20419;-75
2022/12/06 19:39:19;;;;;;;46.17;19.50;;;;;;;21.30;52.58;100262.28;20749313;28;20084;-80
2022/12/06 19:49:22;;;;;;;40.80;17.60;;;;;;;21.30;52.33;100257.00;20754206;28;20064;-81
2022/12/06 19:59:25;;;;;;;;;;;;;;;21.30;52.81;100248.25;20706728;28;20401;-78
2022/12/06 20:09:29;;;;;;;41.73;17.63;;;;;;;21.26;52.66;100258.19;20702952;28;20004;-80
2022/12/06 20:19:30;;;;;;;31.15;13.65;;;;;;;21.13;50.64;100249.59;20711617;28;20065;-77
2022/12/06 20:29:31;;;;;;;28.33;13.48;;;;;;;21.13;51.36;100249.59;20738050;28;20046;-76
2022/12/06 20:39:36;;;;;;;24.88;12.40;;;;;;;21.13;51.32;100239.91;20744971;28;20136;-79
2022/12/06 20:49:37;;;;;;;20.58;11.18;;;;;;;21.09;51.44;100244.59;20749936;28;20081;-79
2022/12/06 20:59:38;;;;;;;22.90;11.82;;;;;;;21.07;51.60;100235.13;20747786;28;21110;-79
2022/12/06 21:09:38;;;;;;;24.55;11.75;;;;;;;21.05;51.47;100244.94;20737309;28;20049;-77
2022/12/06 21:19:39;;;;;;;21.87;10.63;;;;;;;21.02;51.69;100243.41;20746960;28;20045;-77
2022/12/06 21:29:41;;;;;;;19.02;9.75;;;;;;;21.01;52.27;100254.88;20755790;28;20298;-78
2022/12/06 21:39:45;;;;;;;22.13;9.73;;;;;;;20.98;52.39;100263.00;20738561;28;20117;-77
2022/12/06 21:49:45;;;;;;;18.23;9.55;;;;;;;20.97;52.26;100281.56;20730034;28;20052;-77
2022/12/06 21:59:46;;;;;;;20.58;8.88;;;;;;;20.96;52.40;100267.56;20728217;28;20120;-77
2022/12/06 22:09:47;;;;;;;14.48;8.50;;;;;;;20.92;52.48;100269.59;20740053;28;20053;-77
2022/12/06 22:19:47;;;;;;;15.48;8.07;;;;;;;20.88;52.37;100262.88;20735582;28;20475;-78
2022/12/06 22:29:48;;;;;;;15.35;8.13;;;;;;;20.90;52.68;100262.78;20740467;28;20137;-77
2022/12/06 22:39:48;;;;;;;14.55;8.32;;;;;;;20.87;52.41;100252.50;20735218;28;20412;-78
2022/12/06 22:49:48;;;;;;;14.88;7.53;;;;;;;20.87;52.53;100247.22;20730647;28;20049;-78
2022/12/06 22:59:51;;;;;;;14.50;8.32;;;;;;;20.84;52.44;100242.22;20722554;28;20046;-78
2022/12/06 23:09:51;;;;;;;13.63;7.90;;;;;;;20.82;52.57;100225.69;20722586;28;20041;-78
2022/12/06 23:19:52;;;;;;;13.52;7.43;;;;;;;20.78;52.44;100230.38;20721471;28;20069;-78
2022/12/06 23:29:52;;;;;;;11.85;7.05;;;;;;;20.75;52.72;100222.69;20721984;28;20060;-78
2022/12/06 23:39:52;;;;;;;11.88;6.88;;;;;;;20.73;52.70;100193.06;20729512;28;20099;-78
2022/12/06 23:49:53;;;;;;;11.45;6.63;;;;;;;20.74;52.55;100252.63;20735946;28;20067;-78
2022/12/06 23:59:53;;;;;;;12.90;6.82;;;;;;;20.70;52.66;100236.19;20725480;28;20620;-77
